Holbeach, United Kingdom
Current Conditions -  °F | °C
As of 7:50 PM on Thursday 29 Jan 2015 (Local Time) from EGXC Reporting Station
Broken Clouds Broken Clouds  
Wind Chill: 25°   Ceiling: 20000
Heat Index: 32°   Visibility: 6mi
Dew Point: 30°   Wind: 8mph
Humidity: 93%   Direction: 260°W
Pressure: 28.79"   Gusts: NA
Location:  52.8°N, 0.01°E
Report Text: EGXC 291950Z 26007KT 9999 FEW025 BKN200 00/M01 Q0975 BLU
Loading
Personal Weather Stations






























Interactive Weather Map New forecast layout! Learn more

10-Day Weather Forecast

Advertisements
Track Severe Weather on mobile